createdAt,value
2023-03-04T00:01:31.398Z,52.41
2023-03-04T00:04:00.616Z,52.84
2023-03-04T00:06:28.440Z,52.43
2023-03-04T00:08:56.402Z,52.79
2023-03-04T00:11:24.543Z,52.15
2023-03-04T00:13:52.343Z,50.87
2023-03-04T00:16:20.267Z,51.08
2023-03-04T00:18:48.164Z,51.94
2023-03-04T00:21:17.590Z,51.60
2023-03-04T00:23:45.430Z,52.25
2023-03-04T00:26:13.480Z,51.65
2023-03-04T00:28:43.415Z,51.98
2023-03-04T00:31:11.550Z,51.26
2023-03-04T00:33:40.308Z,52.30
2023-03-04T00:36:08.976Z,51.51
2023-03-04T00:38:38.753Z,51.75
2023-03-04T00:41:06.758Z,51.42
2023-03-04T00:43:35.343Z,51.21
2023-03-04T00:46:03.330Z,51.31
2023-03-04T00:48:31.642Z,53.61
2023-03-04T00:50:59.525Z,52.03
2023-03-04T00:53:27.621Z,51.65
2023-03-04T00:55:57.210Z,50.33
2023-03-04T00:58:25.165Z,51.74
2023-03-04T01:00:53.072Z,54.52
2023-03-04T01:03:21.041Z,52.59
2023-03-04T01:05:49.277Z,52.37
2023-03-04T01:08:17.660Z,51.93
2023-03-04T01:10:45.897Z,51.05
2023-03-04T01:13:15.604Z,50.60
2023-03-04T01:15:44.575Z,52.08
2023-03-04T01:18:12.947Z,51.60
2023-03-04T01:20:42.523Z,52.23
2023-03-04T01:23:10.302Z,50.90
2023-03-04T01:25:38.161Z,52.71
2023-03-04T01:28:06.025Z,52.50
2023-03-04T01:30:35.189Z,51.65
2023-03-04T01:33:03.104Z,52.51
2023-03-04T01:35:31.029Z,51.52
2023-03-04T01:37:59.042Z,51.27
2023-03-04T01:40:27.390Z,51.60
2023-03-04T01:42:55.962Z,52.00
2023-03-04T01:45:24.185Z,51.78
2023-03-04T01:47:53.867Z,51.49
2023-03-04T01:50:28.183Z,51.89
2023-03-04T01:52:55.933Z,50.90
2023-03-04T01:55:24.707Z,51.80
2023-03-04T01:57:53.415Z,52.69
2023-03-04T02:00:25.721Z,51.86
2023-03-04T02:02:59.078Z,51.36
2023-03-04T02:05:27.218Z,53.19
2023-03-04T02:07:57.175Z,52.67
2023-03-04T02:10:25.627Z,50.34
2023-03-04T02:12:54.686Z,52.48
2023-03-04T02:15:23.337Z,52.08
2023-03-04T02:17:51.441Z,51.58
2023-03-04T02:20:33.453Z,52.36
2023-03-04T02:23:09.009Z,53.19
2023-03-04T02:25:42.777Z,53.27
2023-03-04T02:28:12.401Z,53.14
2023-03-04T02:30:40.476Z,53.20
2023-03-04T02:33:11.574Z,54.67
2023-03-04T02:35:39.449Z,54.00
2023-03-04T02:38:07.427Z,55.04
2023-03-04T02:40:36.216Z,53.21
2023-03-04T02:43:04.001Z,55.18
2023-03-04T02:45:37.139Z,53.19
2023-03-04T02:48:07.753Z,54.80
2023-03-04T02:50:40.017Z,53.61
2023-03-04T02:53:08.423Z,53.47
2023-03-04T02:55:36.766Z,54.65
2023-03-04T02:58:05.152Z,53.45
2023-03-04T03:00:34.693Z,57.04
2023-03-04T03:03:03.214Z,55.13
2023-03-04T03:05:32.857Z,54.28
2023-03-04T03:08:01.328Z,54.25
2023-03-04T03:10:30.037Z,53.30
2023-03-04T03:12:58.575Z,53.27
2023-03-04T03:15:26.371Z,52.51
2023-03-04T03:17:58.308Z,53.70
2023-03-04T03:20:26.105Z,52.71
2023-03-04T03:22:53.988Z,54.01
2023-03-04T03:25:21.771Z,53.61
2023-03-04T03:27:49.738Z,54.43
2023-03-04T03:30:19.793Z,54.61
2023-03-04T03:32:47.556Z,53.07
2023-03-04T03:35:16.795Z,53.42
2023-03-04T03:37:44.593Z,54.20
2023-03-04T03:40:13.746Z,55.72
2023-03-04T03:42:41.631Z,55.44
2023-03-04T03:45:10.227Z,56.37
2023-03-04T03:47:38.117Z,54.86
2023-03-04T03:50:06.786Z,54.07
2023-03-04T03:52:35.954Z,54.92
2023-03-04T03:55:04.026Z,54.80
2023-03-04T03:57:31.890Z,53.38
2023-03-04T03:59:59.758Z,54.60
2023-03-04T04:02:27.743Z,53.83
2023-03-04T04:04:55.636Z,55.24
2023-03-04T04:07:23.670Z,55.38
2023-03-04T04:09:52.903Z,54.72
2023-03-04T04:12:21.121Z,53.90
2023-03-04T04:14:48.909Z,52.77
2023-03-04T04:17:17.061Z,53.82
2023-03-04T04:19:44.952Z,53.85
2023-03-04T04:22:17.384Z,53.81
2023-03-04T04:24:45.505Z,54.81
2023-03-04T04:27:14.901Z,57.48
2023-03-04T04:29:43.230Z,57.43
2023-03-04T04:32:13.282Z,59.92
2023-03-04T04:34:41.428Z,58.73
2023-03-04T04:37:09.461Z,58.84
2023-03-04T04:39:37.601Z,61.05
2023-03-04T04:42:05.695Z,61.14
2023-03-04T04:44:35.298Z,60.78
2023-03-04T04:47:03.389Z,60.70
2023-03-04T04:49:31.196Z,61.52
2023-03-04T04:51:59.378Z,61.80
2023-03-04T04:54:27.566Z,62.75
2023-03-04T04:56:55.508Z,60.10
2023-03-04T04:59:23.722Z,59.84
2023-03-04T05:01:53.245Z,60.61
2023-03-04T05:04:21.332Z,60.95
2023-03-04T05:06:49.116Z,59.78
2023-03-04T05:09:17.197Z,59.68
2023-03-04T05:11:44.979Z,59.94
2023-03-04T05:14:12.680Z,60.82
2023-03-04T05:16:40.533Z,59.30
2023-03-04T05:19:09.685Z,59.44
2023-03-04T05:21:37.397Z,58.33
2023-03-04T05:24:05.397Z,58.96
2023-03-04T05:26:33.265Z,59.53
2023-03-04T05:29:01.052Z,60.08
2023-03-04T05:31:28.861Z,59.68
2023-03-04T05:33:56.654Z,61.24
2023-03-04T05:36:25.775Z,59.98
2023-03-04T05:38:54.220Z,60.11
2023-03-04T05:41:22.867Z,61.32
2023-03-04T05:43:51.411Z,61.84
2023-03-04T05:46:25.246Z,62.23
2023-03-04T05:48:54.283Z,63.85
2023-03-04T05:51:22.664Z,62.34
2023-03-04T05:53:52.039Z,62.05
2023-03-04T05:56:21.195Z,60.30
2023-03-04T05:58:49.215Z,62.36
2023-03-04T06:01:18.153Z,59.53
2023-03-04T06:03:48.546Z,62.07
2023-03-04T06:06:16.707Z,61.05
2023-03-04T06:08:44.926Z,61.68
2023-03-04T06:11:14.481Z,60.90
2023-03-04T06:13:42.636Z,60.92
2023-03-04T06:16:10.601Z,62.05
2023-03-04T06:18:38.386Z,62.02
2023-03-04T06:21:06.684Z,63.44
2023-03-04T06:23:34.482Z,61.87
2023-03-04T06:26:02.393Z,62.94
2023-03-04T06:28:31.573Z,64.05
2023-03-04T06:30:59.567Z,62.72
2023-03-04T06:33:27.364Z,63.42
2023-03-04T06:35:56.142Z,63.35
2023-03-04T06:38:24.385Z,64.95
2023-03-04T06:40:52.422Z,61.30
2023-03-04T06:43:20.457Z,61.84
2023-03-04T06:45:50.409Z,62.64
2023-03-04T06:48:18.308Z,61.28
2023-03-04T06:50:46.455Z,62.58
2023-03-04T06:53:14.452Z,60.84
2023-03-04T06:55:43.204Z,62.06
2023-03-04T06:58:11.250Z,66.31
2023-03-04T07:00:39.098Z,64.10
2023-03-04T07:03:08.557Z,63.74
2023-03-04T07:05:36.694Z,61.71
2023-03-04T07:08:04.823Z,60.86
2023-03-04T07:10:32.830Z,65.16
2023-03-04T07:13:00.700Z,62.84
2023-03-04T07:15:29.923Z,63.10
2023-03-04T07:17:58.412Z,63.87
2023-03-04T07:20:30.669Z,64.37
2023-03-04T07:22:59.531Z,63.75
2023-03-04T07:25:27.712Z,65.80
2023-03-04T07:27:55.419Z,66.01
2023-03-04T07:30:23.249Z,64.93
2023-03-04T07:32:51.803Z,65.04
2023-03-04T07:35:19.752Z,66.24
2023-03-04T07:37:48.914Z,68.06
2023-03-04T07:40:17.049Z,65.54
2023-03-04T07:42:45.297Z,64.65
2023-03-04T07:45:16.513Z,64.83
2023-03-04T07:47:44.790Z,64.79
2023-03-04T07:50:14.165Z,65.34
2023-03-04T07:52:44.573Z,67.38
2023-03-04T07:55:15.590Z,66.78
2023-03-04T07:57:44.725Z,64.79
2023-03-04T08:00:16.509Z,67.24
2023-03-04T08:02:44.635Z,68.77
2023-03-04T08:05:12.430Z,65.69
2023-03-04T08:07:40.466Z,66.67
2023-03-04T08:10:09.230Z,66.16
2023-03-04T08:12:38.504Z,68.88
2023-03-04T08:15:07.676Z,66.29
2023-03-04T08:17:37.014Z,69.85
2023-03-04T08:20:05.734Z,67.82
2023-03-04T08:22:34.293Z,68.33
2023-03-04T08:25:03.364Z,69.75
2023-03-04T08:27:38.789Z,70.23
2023-03-04T08:30:07.709Z,76.74
2023-03-04T08:32:35.741Z,76.23
2023-03-04T08:35:03.769Z,73.89
2023-03-04T08:37:31.627Z,78.42
2023-03-04T08:39:59.687Z,74.34
2023-03-04T08:42:28.263Z,76.71
2023-03-04T08:44:57.390Z,75.24
2023-03-04T08:47:25.399Z,72.82
2023-03-04T08:49:55.479Z,76.85
2023-03-04T08:52:24.934Z,76.57
2023-03-04T08:54:55.868Z,77.72
2023-03-04T08:57:41.487Z,75.62
2023-03-04T09:00:22.319Z,75.44
2023-03-04T09:02:50.732Z,77.11
2023-03-04T09:05:18.782Z,74.34
2023-03-04T09:07:47.171Z,74.63
2023-03-04T09:10:15.231Z,78.69
2023-03-04T09:12:43.078Z,75.17
2023-03-04T09:15:12.728Z,77.01
2023-03-04T09:17:41.620Z,76.03
2023-03-04T09:20:12.231Z,74.48
2023-03-04T09:22:40.359Z,72.82
2023-03-04T09:25:14.736Z,72.43
2023-03-04T09:27:43.130Z,70.24
2023-03-04T09:30:13.656Z,69.04
2023-03-04T09:32:41.912Z,66.77
2023-03-04T09:35:11.084Z,67.60
2023-03-04T09:37:41.300Z,73.14
2023-03-04T09:40:17.238Z,70.76
2023-03-04T09:42:52.220Z,75.16
2023-03-04T09:45:23.369Z,71.88
2023-03-04T09:47:54.194Z,70.15
2023-03-04T09:50:23.324Z,71.08
2023-03-04T09:53:05.386Z,72.03
2023-03-04T09:55:38.341Z,71.91
2023-03-04T09:58:16.661Z,71.16
2023-03-04T10:00:48.589Z,74.21
2023-03-04T10:03:21.925Z,74.43
2023-03-04T10:05:57.557Z,73.15
2023-03-04T10:08:39.249Z,68.64
2023-03-04T10:11:14.254Z,67.42
2023-03-04T10:13:53.519Z,65.22
2023-03-04T10:16:28.912Z,65.26
2023-03-04T10:19:00.772Z,63.58
2023-03-04T10:21:34.491Z,65.12
2023-03-04T10:24:06.761Z,66.34
2023-03-04T10:26:35.257Z,66.47
2023-03-04T10:29:09.825Z,62.51
2023-03-04T10:31:42.098Z,62.94
2023-03-04T10:34:12.946Z,60.74
2023-03-04T10:36:51.124Z,62.96
2023-03-04T10:39:23.035Z,59.80
2023-03-04T10:42:07.236Z,58.92
2023-03-04T10:44:38.601Z,56.89
2023-03-04T10:47:11.329Z,59.92
2023-03-04T10:49:51.821Z,56.22
2023-03-04T10:52:28.355Z,54.98
2023-03-04T10:54:58.053Z,55.74
2023-03-04T10:57:34.405Z,57.25
2023-03-04T11:00:03.510Z,56.40
2023-03-04T11:02:34.858Z,54.71
2023-03-04T11:05:19.816Z,56.46
2023-03-04T11:07:56.680Z,56.27
2023-03-04T11:10:32.923Z,51.45
2023-03-04T11:13:02.895Z,52.61
2023-03-04T11:15:46.024Z,59.35
2023-03-04T11:18:16.946Z,65.40
2023-03-04T11:20:49.422Z,68.23
2023-03-04T11:23:20.876Z,67.15
2023-03-04T11:25:53.782Z,63.03
2023-03-04T11:28:29.605Z,63.57
2023-03-04T11:31:02.279Z,63.68
2023-03-04T11:33:43.158Z,61.88
2023-03-04T11:36:24.334Z,60.40
2023-03-04T11:38:53.107Z,60.99
2023-03-04T11:41:26.668Z,57.63
2023-03-04T11:43:55.404Z,53.12
2023-03-04T11:46:39.688Z,56.50
2023-03-04T11:49:30.213Z,57.19
2023-03-04T11:52:06.571Z,58.94
2023-03-04T11:54:41.999Z,59.33
2023-03-04T11:57:24.639Z,58.64
2023-03-04T12:00:03.664Z,53.45
2023-03-04T12:02:47.811Z,51.36
2023-03-04T12:05:27.306Z,50.23
2023-03-04T12:08:16.326Z,49.00
2023-03-04T12:10:54.595Z,51.91
2023-03-04T12:14:11.381Z,47.21
2023-03-04T12:16:54.300Z,45.30
2023-03-04T12:19:35.144Z,45.77
2023-03-04T12:22:24.313Z,44.13
2023-03-04T12:25:22.196Z,48.43
2023-03-04T12:27:59.742Z,47.27
2023-03-04T12:30:41.914Z,46.04
2023-03-04T12:33:21.208Z,45.71
2023-03-04T12:35:57.562Z,44.99
2023-03-04T12:39:00.104Z,45.33
2023-03-04T12:41:41.961Z,43.73
2023-03-04T12:44:20.968Z,43.95
2023-03-04T12:47:14.467Z,45.02
2023-03-04T12:49:53.172Z,46.62
2023-03-04T12:52:31.521Z,47.40
2023-03-04T12:55:04.936Z,50.17
2023-03-04T12:57:34.363Z,47.91
2023-03-04T13:00:16.045Z,49.43
2023-03-04T13:02:54.616Z,50.53
2023-03-04T13:05:41.524Z,55.61
2023-03-04T13:08:21.546Z,57.30
2023-03-04T13:10:52.335Z,56.06
2023-03-04T13:13:39.935Z,57.06
2023-03-04T13:16:28.626Z,54.95
2023-03-04T13:18:58.649Z,56.03
2023-03-04T13:21:30.218Z,54.82
2023-03-04T13:23:59.849Z,53.57
2023-03-04T13:26:34.409Z,53.46
2023-03-04T13:29:32.641Z,47.79
2023-03-04T13:32:03.748Z,52.24
2023-03-04T13:34:50.098Z,49.95
2023-03-04T13:37:32.286Z,50.18
2023-03-04T13:40:35.717Z,46.94
2023-03-04T13:43:27.166Z,46.56
2023-03-04T13:45:55.860Z,49.62
2023-03-04T13:48:32.440Z,45.69
2023-03-04T13:51:00.921Z,44.01
2023-03-04T13:53:43.736Z,46.85
2023-03-04T13:56:37.778Z,46.96
2023-03-04T13:59:32.370Z,45.11
2023-03-04T14:02:03.129Z,46.59
2023-03-04T14:04:37.335Z,48.38
2023-03-04T14:07:19.853Z,45.36
2023-03-04T14:09:56.418Z,47.26
2023-03-04T14:12:25.257Z,48.27
2023-03-04T14:14:57.481Z,47.71
2023-03-04T14:17:29.335Z,47.29
2023-03-04T14:19:57.384Z,45.23
2023-03-04T14:22:28.123Z,46.02
2023-03-04T14:25:01.959Z,45.67
2023-03-04T14:27:33.035Z,44.41
2023-03-04T14:30:03.837Z,45.16
2023-03-04T14:32:35.164Z,46.44
2023-03-04T14:35:11.261Z,50.95
2023-03-04T14:37:48.649Z,49.51
2023-03-04T14:40:24.191Z,52.59
2023-03-04T14:42:57.953Z,53.79
2023-03-04T14:45:28.716Z,54.24
2023-03-04T14:48:00.570Z,54.21
2023-03-04T14:50:29.950Z,50.87
2023-03-04T14:53:23.119Z,47.96
2023-03-04T14:56:00.038Z,48.49
2023-03-04T14:58:31.143Z,49.47
2023-03-04T15:01:15.524Z,50.12
2023-03-04T15:03:46.157Z,50.39
2023-03-04T15:06:20.494Z,47.35
2023-03-04T15:08:59.449Z,48.80
2023-03-04T15:11:29.741Z,48.50
2023-03-04T15:13:59.246Z,48.24
2023-03-04T15:16:31.396Z,48.92
2023-03-04T15:19:03.233Z,48.18
2023-03-04T15:21:41.014Z,50.54
2023-03-04T15:24:12.944Z,51.67
2023-03-04T15:26:43.956Z,50.47
2023-03-04T15:29:15.829Z,50.89
2023-03-04T15:31:48.334Z,52.23
2023-03-04T15:34:18.412Z,49.66
2023-03-04T15:36:49.931Z,49.65
2023-03-04T15:39:19.895Z,51.15
2023-03-04T15:41:48.360Z,50.61
2023-03-04T15:44:17.013Z,50.15
2023-03-04T15:46:46.418Z,50.18
2023-03-04T15:49:18.716Z,48.84
2023-03-04T15:51:46.705Z,49.38
2023-03-04T15:54:15.399Z,48.89
2023-03-04T15:56:43.467Z,49.50
2023-03-04T15:59:14.456Z,49.11
2023-03-04T16:01:43.282Z,51.36
2023-03-04T16:04:15.927Z,49.33
2023-03-04T16:06:46.006Z,50.81
2023-03-04T16:09:17.719Z,51.01
2023-03-04T16:11:47.724Z,49.05
2023-03-04T16:14:17.071Z,50.22
2023-03-04T16:16:46.808Z,48.70
2023-03-04T16:19:16.375Z,49.02
2023-03-04T16:21:44.817Z,48.70
2023-03-04T16:24:18.405Z,49.44
2023-03-04T16:26:47.054Z,49.69
2023-03-04T16:29:16.467Z,51.00
2023-03-04T16:31:44.837Z,51.94
2023-03-04T16:34:16.026Z,53.57
2023-03-04T16:36:45.735Z,50.53
2023-03-04T16:39:21.240Z,54.02
2023-03-04T16:41:50.037Z,49.48
2023-03-04T16:44:18.711Z,49.77
2023-03-04T16:46:46.828Z,49.40
2023-03-04T16:49:15.727Z,49.89
2023-03-04T16:51:48.099Z,51.16
2023-03-04T16:54:24.782Z,49.93
2023-03-04T16:56:53.476Z,49.00
2023-03-04T16:59:21.814Z,48.12
2023-03-04T17:01:51.786Z,48.68
2023-03-04T17:04:20.594Z,47.57
2023-03-04T17:06:51.815Z,48.72
2023-03-04T17:09:22.921Z,47.63
2023-03-04T17:11:58.826Z,47.74
2023-03-04T17:14:35.873Z,48.13
2023-03-04T17:17:12.857Z,48.21
2023-03-04T17:19:44.202Z,49.45
2023-03-04T17:22:19.490Z,48.86
2023-03-04T17:24:50.240Z,49.22
2023-03-04T17:27:22.226Z,48.07
2023-03-04T17:29:54.054Z,48.35
2023-03-04T17:32:23.856Z,47.27
2023-03-04T17:35:00.841Z,48.06
2023-03-04T17:37:31.590Z,48.32
2023-03-04T17:40:00.820Z,47.45
2023-03-04T17:42:30.930Z,48.11
2023-03-04T17:45:03.298Z,47.92
2023-03-04T17:47:31.688Z,49.92
2023-03-04T17:49:59.872Z,48.33
2023-03-04T17:52:29.076Z,48.60
2023-03-04T17:54:58.813Z,49.50
2023-03-04T17:57:27.365Z,52.56
2023-03-04T17:59:56.777Z,50.75
2023-03-04T18:02:26.278Z,50.05
2023-03-04T18:04:56.077Z,49.67
2023-03-04T18:07:24.664Z,51.06
2023-03-04T18:09:53.868Z,50.40
2023-03-04T18:12:32.171Z,51.64
2023-03-04T18:15:07.138Z,51.74
2023-03-04T18:17:36.002Z,51.14
2023-03-04T18:20:05.744Z,51.86
2023-03-04T18:22:35.023Z,51.92
2023-03-04T18:25:04.082Z,52.14
2023-03-04T18:27:33.362Z,52.23
2023-03-04T18:30:01.262Z,51.12
2023-03-04T18:32:36.310Z,50.55
2023-03-04T18:35:14.395Z,51.90
2023-03-04T18:37:45.219Z,52.19
2023-03-04T18:40:17.293Z,52.85
2023-03-04T18:42:46.572Z,52.40
2023-03-04T18:45:16.260Z,51.41
2023-03-04T18:47:48.662Z,52.84
2023-03-04T18:50:16.681Z,54.66
2023-03-04T18:52:45.235Z,55.22
2023-03-04T18:55:14.168Z,54.57
2023-03-04T18:57:45.905Z,53.63
2023-03-04T19:00:19.971Z,54.99
2023-03-04T19:02:52.162Z,56.98
2023-03-04T19:05:22.189Z,55.62
2023-03-04T19:07:50.188Z,55.44
2023-03-04T19:10:19.732Z,55.18
2023-03-04T19:12:47.697Z,54.55
2023-03-04T19:15:18.206Z,54.86
2023-03-04T19:17:46.627Z,55.20
2023-03-04T19:20:15.808Z,55.90
2023-03-04T19:22:44.410Z,58.03
2023-03-04T19:25:13.031Z,56.13
2023-03-04T19:27:41.095Z,54.72
2023-03-04T19:30:11.422Z,54.35
2023-03-04T19:32:40.660Z,54.43
2023-03-04T19:35:08.901Z,54.38
2023-03-04T19:37:37.038Z,54.32
2023-03-04T19:40:05.403Z,53.55
2023-03-04T19:42:34.112Z,55.91
2023-03-04T19:45:09.211Z,55.12
2023-03-04T19:47:37.818Z,56.60
2023-03-04T19:50:10.928Z,55.14
2023-03-04T19:52:39.206Z,54.84
2023-03-04T19:55:07.954Z,54.76
2023-03-04T19:57:36.167Z,54.24
2023-03-04T20:00:05.175Z,54.59
2023-03-04T20:02:33.444Z,53.96
2023-03-04T20:05:02.201Z,54.67
2023-03-04T20:07:32.668Z,53.74
2023-03-04T20:10:00.813Z,54.34
2023-03-04T20:12:31.295Z,55.06
2023-03-04T20:15:00.146Z,57.29
2023-03-04T20:17:28.301Z,54.96
2023-03-04T20:19:56.180Z,55.49
2023-03-04T20:22:24.120Z,55.35
2023-03-04T20:24:54.844Z,56.09
2023-03-04T20:27:22.855Z,55.96
2023-03-04T20:29:50.821Z,55.46
2023-03-04T20:32:18.814Z,55.81
2023-03-04T20:34:47.628Z,56.93
2023-03-04T20:37:15.624Z,56.15
2023-03-04T20:39:43.625Z,56.61
2023-03-04T20:42:13.194Z,53.79
2023-03-04T20:44:41.254Z,57.03
2023-03-04T20:47:09.451Z,56.96
2023-03-04T20:49:39.990Z,56.56
2023-03-04T20:52:07.948Z,57.55
2023-03-04T20:54:37.243Z,56.98
2023-03-04T20:57:06.818Z,59.51
2023-03-04T20:59:37.888Z,56.59
2023-03-04T21:02:06.558Z,56.00
2023-03-04T21:04:35.200Z,55.68
2023-03-04T21:07:03.379Z,54.14
2023-03-04T21:09:31.343Z,55.14
2023-03-04T21:12:00.828Z,56.84
2023-03-04T21:14:30.756Z,56.33
2023-03-04T21:17:02.278Z,57.50
2023-03-04T21:19:32.613Z,56.55
2023-03-04T21:22:01.516Z,56.33
2023-03-04T21:24:30.785Z,58.29
2023-03-04T21:26:59.010Z,56.53
2023-03-04T21:29:28.110Z,56.53
2023-03-04T21:32:04.723Z,57.24
2023-03-04T21:34:41.537Z,55.52
2023-03-04T21:37:09.989Z,55.88
2023-03-04T21:39:38.026Z,55.12
2023-03-04T21:42:06.444Z,55.36
2023-03-04T21:44:48.669Z,55.19
2023-03-04T21:47:17.870Z,55.14
2023-03-04T21:49:47.624Z,55.61
2023-03-04T21:52:15.648Z,55.29
2023-03-04T21:54:43.411Z,56.93
2023-03-04T21:57:11.586Z,56.37
2023-03-04T21:59:40.101Z,56.44
2023-03-04T22:02:08.472Z,56.30
2023-03-04T22:04:36.477Z,57.46
2023-03-04T22:07:05.596Z,56.12
2023-03-04T22:09:33.516Z,56.06
2023-03-04T22:12:01.253Z,55.21
2023-03-04T22:14:29.637Z,54.27
2023-03-04T22:16:57.682Z,55.71
2023-03-04T22:19:28.053Z,56.28
2023-03-04T22:21:56.231Z,55.78
2023-03-04T22:24:26.358Z,57.20
2023-03-04T22:26:54.423Z,59.93
2023-03-04T22:29:23.484Z,58.83
2023-03-04T22:31:51.432Z,56.78
2023-03-04T22:34:19.765Z,57.63
2023-03-04T22:36:49.225Z,59.62
2023-03-04T22:39:19.632Z,60.47
2023-03-04T22:41:49.077Z,62.15
2023-03-04T22:44:17.164Z,62.87
2023-03-04T22:46:45.193Z,63.21
2023-03-04T22:49:14.814Z,63.31
2023-03-04T22:51:44.679Z,62.51
2023-03-04T22:54:13.922Z,63.50
2023-03-04T22:56:41.857Z,63.37
2023-03-04T22:59:11.528Z,67.21
2023-03-04T23:01:39.589Z,63.32
2023-03-04T23:04:07.644Z,62.97
2023-03-04T23:06:36.305Z,63.48
2023-03-04T23:09:05.017Z,61.41
2023-03-04T23:11:35.469Z,62.89
2023-03-04T23:14:06.647Z,62.84
2023-03-04T23:16:38.679Z,62.00
2023-03-04T23:19:07.350Z,60.78
2023-03-04T23:21:38.228Z,63.62
2023-03-04T23:24:08.356Z,63.12
2023-03-04T23:26:38.811Z,60.75
2023-03-04T23:29:08.616Z,60.80
2023-03-04T23:31:38.638Z,62.03
2023-03-04T23:34:07.384Z,60.76
2023-03-04T23:36:38.161Z,61.81
2023-03-04T23:39:07.860Z,62.85
2023-03-04T23:41:36.682Z,61.39
2023-03-04T23:44:05.447Z,61.56
2023-03-04T23:46:33.308Z,62.30
2023-03-04T23:49:02.569Z,63.09
2023-03-04T23:51:31.216Z,60.23
2023-03-04T23:54:00.294Z,60.65
2023-03-04T23:56:30.012Z,59.64
2023-03-04T23:58:59.210Z,62.38
